Time;durP1;ratioP1;P1;durP2;ratioP2;P2;SDS_P1;SDS_P2;PMS_P1;PMS_P2;Temp;Humidity;BMP_temperature;BMP_pressure;BME280_temperature;BME280_humidity;BME280_pressure;Samples;Min_cycle;Max_cycle;Signal;HPM_P1;HPM_P2
2022/03/08 00:02:19;;;;;;;9.20;4.07;;;;;;;0.84;59.45;102710.13;4938136;28;20334;-51
2022/03/08 00:04:45;;;;;;;7.57;3.65;;;;;;;0.80;59.63;102714.88;4935536;28;20489;-50
2022/03/08 00:07:12;;;;;;;8.05;4.03;;;;;;;0.79;59.62;102721.13;4940514;29;20023;-50
2022/03/08 00:09:37;;;;;;;7.88;3.42;;;;;;;0.76;59.55;102725.84;4941229;28;20406;-50
2022/03/08 00:12:04;;;;;;;6.50;2.72;;;;;;;0.76;59.53;102725.84;4942750;28;20031;-48
2022/03/08 00:14:29;;;;;;;7.07;3.28;;;;;;;0.74;59.53;102728.59;4938369;28;20490;-50
2022/03/08 00:16:55;;;;;;;5.15;2.97;;;;;;;0.72;59.66;102725.28;4939307;28;20027;-54
2022/03/08 00:19:21;;;;;;;7.75;3.20;;;;;;;0.69;59.57;102724.69;4940729;29;20426;-48
2022/03/08 00:21:47;;;;;;;4.53;2.60;;;;;;;0.68;59.47;102718.56;4943067;28;20179;-49
2022/03/08 00:24:12;;;;;;;6.78;2.50;;;;;;;0.67;59.22;102721.34;4938021;28;20106;-53
2022/03/08 00:26:38;;;;;;;4.47;2.45;;;;;;;0.64;59.49;102711.91;4936900;28;20034;-50
2022/03/08 00:29:04;;;;;;;5.13;2.83;;;;;;;0.62;59.64;102713.84;4942121;28;20023;-51
2022/03/08 00:31:30;;;;;;;3.58;2.28;;;;;;;0.60;59.55;102707.88;4938583;28;20031;-51
2022/03/08 00:33:56;;;;;;;3.17;2.25;;;;;;;0.58;59.24;102715.09;4942130;28;20077;-51
2022/03/08 00:36:21;;;;;;;4.57;2.30;;;;;;;0.55;59.84;102713.56;4944102;29;20058;-49
2022/03/08 00:38:47;;;;;;;3.67;1.83;;;;;;;0.53;59.74;102704.09;4937006;28;20042;-52
2022/03/08 00:41:12;;;;;;;3.85;2.03;;;;;;;0.50;59.46;102712.28;4940719;29;20512;-53
2022/03/08 00:43:38;;;;;;;5.15;2.70;;;;;;;0.48;59.75;102708.94;4936506;29;20539;-48
2022/03/08 00:46:04;;;;;;;5.30;2.03;;;;;;;0.46;59.70;102709.06;4935692;29;20031;-51
2022/03/08 00:48:29;;;;;;;6.80;2.60;;;;;;;0.45;59.65;102701.31;4942056;28;20031;-50
2022/03/08 00:50:55;;;;;;;4.07;2.42;;;;;;;0.40;59.68;102692.97;4942977;28;20031;-55
2022/03/08 00:53:20;;;;;;;3.88;2.58;;;;;;;0.38;60.11;102700.19;4940853;29;20027;-51
2022/03/08 00:55:46;;;;;;;7.35;3.55;;;;;;;0.35;59.85;102695.97;4938250;29;20081;-51
2022/03/08 00:58:12;;;;;;;5.18;2.70;;;;;;;0.29;60.16;102707.91;4942198;28;20505;-53
2022/03/08 01:00:38;;;;;;;5.78;2.63;;;;;;;0.26;60.19;102694.16;4942269;28;20035;-52
2022/03/08 01:03:04;;;;;;;6.03;2.85;;;;;;;0.18;60.46;102710.66;4939651;28;20490;-51
2022/03/08 01:05:30;;;;;;;7.68;3.30;;;;;;;0.13;60.88;102707.56;4941324;28;20042;-51
2022/03/08 01:07:57;;;;;;;7.20;3.13;;;;;;;0.09;60.53;102710.59;4940597;28;20034;-51
2022/03/08 01:10:24;;;;;;;8.40;3.50;;;;;;;0.08;60.80;102709.75;4944691;29;20050;-54
2022/03/08 01:12:52;;;;;;;5.10;2.80;;;;;;;0.10;60.93;102717.53;4947600;28;20042;-53
2022/03/08 01:15:19;;;;;;;5.47;3.20;;;;;;;0.10;60.21;102712.25;4943166;28;20023;-53
2022/03/08 01:17:47;;;;;;;4.93;3.38;;;;;;;0.10;60.25;102709.63;4944662;29;20144;-52
2022/03/08 01:20:14;;;;;;;7.15;3.08;;;;;;;0.09;60.39;102711.41;4942673;28;20118;-53
2022/03/08 01:22:39;;;;;;;5.35;2.80;;;;;;;0.09;60.34;102702.69;4942572;28;20038;-48
2022/03/08 01:25:07;;;;;;;5.55;2.70;;;;;;;0.06;60.49;102695.88;4947342;28;20494;-51
2022/03/08 01:27:33;;;;;;;5.47;3.60;;;;;;;0.07;60.53;102704.63;4942652;28;20027;-51
2022/03/08 01:29:59;;;;;;;5.05;3.35;;;;;;;0.04;60.43;102700.44;4943004;29;20110;-50
2022/03/08 01:32:25;;;;;;;5.72;2.95;;;;;;;0.01;60.41;102695.44;4944148;28;20023;-52
2022/03/08 01:34:50;;;;;;;6.10;3.38;;;;;;;-0.02;60.08;102701.78;4943944;28;20492;-49
2022/03/08 01:37:16;;;;;;;5.78;2.90;;;;;;;-0.03;60.55;102688.75;4946033;28;20085;-52
2022/03/08 01:39:42;;;;;;;4.82;2.90;;;;;;;-0.07;60.81;102689.97;4944292;29;20114;-51
2022/03/08 01:42:12;;;;;;;7.13;3.50;;;;;;;-0.14;60.71;102689.69;4941760;28;20101;-50
2022/03/08 01:44:43;;;;;;;6.28;3.10;;;;;;;-0.17;60.96;102684.66;4944365;28;20114;-48
2022/03/08 01:47:20;;;;;;;6.00;3.35;;;;;;;-0.18;60.91;102687.41;4944929;29;20019;-52
2022/03/08 01:49:47;;;;;;;6.25;2.83;;;;;;;-0.18;60.57;102690.03;4944937;28;20027;-49
2022/03/08 01:52:14;;;;;;;4.95;3.20;;;;;;;-0.17;60.83;102694.38;4945019;28;20047;-53
2022/03/08 01:54:41;;;;;;;8.20;3.13;;;;;;;-0.19;60.49;102685.75;4942613;29;20027;-51
2022/03/08 01:57:07;;;;;;;8.10;3.10;;;;;;;-0.20;60.53;102682.28;4942304;29;20347;-49
2022/03/08 01:59:33;;;;;;;9.23;4.03;;;;;;;-0.22;60.54;102680.72;4943918;28;20046;-48
2022/03/08 02:01:59;;;;;;;7.70;3.50;;;;;;;-0.22;60.77;102686.00;4943077;28;20027;-51
2022/03/08 02:04:24;;;;;;;11.23;3.95;;;;;;;-0.24;60.29;102678.22;4941476;28;20138;-51
2022/03/08 02:06:50;;;;;;;7.38;3.10;;;;;;;-0.27;61.16;102680.31;4939070;29;20031;-51
2022/03/08 02:09:16;;;;;;;4.72;3.50;;;;;;;-0.28;60.83;102681.25;4943548;28;20402;-51
2022/03/08 02:11:42;;;;;;;7.47;3.47;;;;;;;-0.29;61.00;102695.41;4940678;29;20043;-49
2022/03/08 02:14:07;;;;;;;9.60;3.53;;;;;;;-0.30;60.43;102699.84;4944346;29;20043;-50
2022/03/08 02:16:34;;;;;;;7.05;3.75;;;;;;;-0.32;60.60;102699.97;4944050;28;21085;-50
2022/03/08 02:19:00;;;;;;;5.32;3.47;;;;;;;-0.34;60.66;102691.38;4944448;28;20326;-50
2022/03/08 02:21:26;;;;;;;7.88;3.15;;;;;;;-0.38;60.98;102692.56;4939826;28;20493;-50
2022/03/08 02:23:52;;;;;;;5.78;3.00;;;;;;;-0.39;61.23;102695.31;4945479;29;20386;-49
2022/03/08 02:26:20;;;;;;;4.88;2.70;;;;;;;-0.41;61.04;102700.72;4939838;28;20027;-50
2022/03/08 02:28:46;;;;;;;6.30;3.60;;;;;;;-0.41;61.12;102692.00;4942477;28;20267;-51
2022/03/08 02:31:12;;;;;;;5.93;3.22;;;;;;;-0.44;60.87;102694.88;4940786;29;20464;-49
2022/03/08 02:33:38;;;;;;;5.70;3.00;;;;;;;-0.44;60.83;102697.53;4944539;28;20034;-50
2022/03/08 02:36:06;;;;;;;7.57;3.53;;;;;;;-0.46;60.89;102694.19;4942026;29;20027;-50
2022/03/08 02:38:31;;;;;;;10.25;3.22;;;;;;;-0.47;61.01;102693.34;4943158;29;20028;-48
2022/03/08 02:40:57;;;;;;;6.55;3.88;;;;;;;-0.49;60.91;102699.72;4944316;28;20094;-51
2022/03/08 02:43:22;;;;;;;7.45;3.20;;;;;;;-0.52;60.87;102692.06;4942098;29;20389;-50
2022/03/08 02:45:48;;;;;;;8.23;3.65;;;;;;;-0.54;60.97;102688.69;4942027;28;21426;-50
2022/03/08 02:48:13;;;;;;;8.00;2.90;;;;;;;-0.55;60.64;102690.50;4941922;29;20172;-54
2022/03/08 02:50:39;;;;;;;5.25;3.20;;;;;;;-0.57;60.94;102688.97;4940441;29;20408;-51
2022/03/08 02:53:05;;;;;;;5.90;3.10;;;;;;;-0.59;60.95;102683.81;4945889;28;20037;-49
2022/03/08 02:55:33;;;;;;;5.78;3.20;;;;;;;-0.62;60.57;102686.72;4944440;28;20023;-51
2022/03/08 02:57:59;;;;;;;6.72;3.05;;;;;;;-0.63;61.20;102687.69;4941311;28;20042;-53
2022/03/08 03:00:27;;;;;;;5.32;3.05;;;;;;;-0.65;61.15;102681.72;4937045;28;20028;-52
2022/03/08 03:02:53;;;;;;;9.50;3.10;;;;;;;-0.67;60.98;102687.09;4944043;29;20027;-50
2022/03/08 03:05:18;;;;;;;7.47;3.00;;;;;;;-0.71;60.86;102685.69;4939786;28;20027;-54
2022/03/08 03:07:44;;;;;;;5.13;2.88;;;;;;;-0.72;61.11;102685.78;4943268;28;20031;-52
2022/03/08 03:10:13;;;;;;;5.03;2.78;;;;;;;-0.76;61.32;102682.59;4937786;29;20278;-51
2022/03/08 03:12:38;;;;;;;5.63;3.15;;;;;;;-0.81;61.27;102678.69;4940426;28;20027;-51
2022/03/08 03:15:06;;;;;;;6.90;3.13;;;;;;;-0.84;61.46;102679.75;4964558;23;20381;-48
2022/03/08 03:17:32;;;;;;;6.53;3.08;;;;;;;-0.85;61.68;102669.38;4960639;28;20042;-48
2022/03/08 03:19:58;;;;;;;5.50;3.35;;;;;;;-0.86;61.54;102675.59;4963059;28;20034;-47
2022/03/08 03:22:23;;;;;;;6.00;3.38;;;;;;;-0.86;61.24;102672.97;4964147;28;20026;-49
2022/03/08 03:24:49;;;;;;;5.20;3.33;;;;;;;-0.87;61.59;102671.28;4965860;28;20488;-46
2022/03/08 03:27:14;;;;;;;6.05;3.20;;;;;;;-0.88;61.65;102673.09;4964087;28;20027;-46
2022/03/08 03:29:40;;;;;;;5.13;2.72;;;;;;;-0.89;61.82;102668.78;4963854;28;20073;-46
2022/03/08 03:32:06;;;;;;;5.40;3.20;;;;;;;-0.91;61.45;102676.78;4963816;28;20436;-46
2022/03/08 03:34:32;;;;;;;6.15;3.22;;;;;;;-0.91;61.55;102673.31;4965408;28;20463;-46
2022/03/08 03:36:57;;;;;;;5.47;2.80;;;;;;;-0.92;61.42;102674.28;4957517;28;20027;-47
2022/03/08 03:39:23;;;;;;;6.22;3.72;;;;;;;-0.95;61.47;102672.75;4965135;28;20019;-48
2022/03/08 03:41:48;;;;;;;5.88;3.50;;;;;;;-1.05;62.04;102669.22;4966656;28;20238;-46
2022/03/08 03:44:14;;;;;;;4.65;2.90;;;;;;;-1.11;61.81;102676.75;4960429;28;20110;-48
2022/03/08 03:46:39;;;;;;;5.15;3.28;;;;;;;-1.10;61.92;102679.25;4962634;28;20121;-49
2022/03/08 03:49:05;;;;;;;5.65;3.00;;;;;;;-1.08;62.18;102666.81;4964753;28;20038;-48
2022/03/08 03:51:31;;;;;;;6.90;3.22;;;;;;;-1.19;62.37;102666.03;4959117;28;20026;-47
2022/03/08 03:53:56;;;;;;;7.10;3.65;;;;;;;-1.35;63.65;102658.53;4959459;28;20027;-50
2022/03/08 03:56:22;;;;;;;6.18;3.25;;;;;;;-1.48;63.84;102660.47;4963373;28;20085;-47
2022/03/08 03:58:47;;;;;;;6.45;3.13;;;;;;;-1.48;63.52;102657.81;4963389;28;20035;-47
2022/03/08 04:01:13;;;;;;;7.05;3.45;;;;;;;-1.43;62.66;102656.53;4962909;28;20465;-47
2022/03/08 04:03:38;;;;;;;4.95;2.97;;;;;;;-1.36;63.38;102668.22;4967487;28;20110;-48
2022/03/08 04:06:05;;;;;;;7.22;4.10;;;;;;;-1.32;62.27;102674.88;4957615;28;20037;-46
2022/03/08 04:08:31;;;;;;;10.88;4.00;;;;;;;-1.29;62.74;102677.25;4954352;28;20035;-47
2022/03/08 04:10:56;;;;;;;5.00;3.40;;;;;;;-1.29;62.94;102682.53;4956224;28;20029;-48
2022/03/08 04:13:22;;;;;;;10.50;3.33;;;;;;;-1.28;62.43;102680.72;4955579;28;20066;-46
2022/03/08 04:15:47;;;;;;;5.30;2.95;;;;;;;-1.28;62.58;102680.72;4958616;28;20411;-46
2022/03/08 04:18:14;;;;;;;8.27;3.45;;;;;;;-1.28;62.11;102686.81;4965276;28;20041;-48
2022/03/08 04:20:39;;;;;;;6.05;3.10;;;;;;;-1.28;62.67;102686.81;4960174;28;20030;-48
2022/03/08 04:23:05;;;;;;;17.20;8.23;;;;;;;-1.29;62.39;102679.06;4961677;28;20041;-46
2022/03/08 04:25:31;;;;;;;9.98;5.47;;;;;;;-1.36;62.43;102685.78;4962721;28;20033;-49
2022/03/08 04:27:57;;;;;;;11.82;6.57;;;;;;;-1.36;62.30;102693.66;4952269;28;20046;-48
2022/03/08 04:30:23;;;;;;;13.68;7.25;;;;;;;-1.34;62.36;102692.59;4956258;28;20035;-47
2022/03/08 04:32:51;;;;;;;16.27;8.40;;;;;;;-1.34;62.51;102691.75;4957423;28;20043;-46
2022/03/08 04:35:18;;;;;;;15.45;8.07;;;;;;;-1.34;62.52;102702.28;4953217;28;20505;-48
2022/03/08 04:37:44;;;;;;;16.10;8.50;;;;;;;-1.35;62.47;102696.19;4954164;28;20027;-46
2022/03/08 04:40:10;;;;;;;16.02;7.78;;;;;;;-1.35;62.02;102696.19;4956605;28;20053;-48
2022/03/08 04:42:35;;;;;;;13.27;6.75;;;;;;;-1.36;62.40;102701.56;4959416;28;20027;-50
2022/03/08 04:45:01;;;;;;;13.80;6.50;;;;;;;-1.38;62.17;102704.31;4965823;28;20114;-49
2022/03/08 04:47:27;;;;;;;9.57;5.70;;;;;;;-1.39;62.54;102712.31;4965188;28;20612;-46
2022/03/08 04:49:52;;;;;;;9.73;4.55;;;;;;;-1.40;62.25;102711.50;4968410;28;20546;-47
2022/03/08 04:52:18;;;;;;;8.73;5.38;;;;;;;-1.40;62.29;102713.28;4963564;28;20045;-47
2022/03/08 04:54:43;;;;;;;7.28;4.75;;;;;;;-1.41;62.22;102716.88;4968206;28;20030;-48
2022/03/08 04:57:09;;;;;;;12.57;4.53;;;;;;;-1.43;62.41;102729.31;4967429;28;20022;-51
2022/03/08 04:59:34;;;;;;;8.23;4.47;;;;;;;-1.45;62.50;102724.16;4966061;28;20057;-47
2022/03/08 05:02:00;;;;;;;6.38;3.50;;;;;;;-1.46;62.31;102726.91;4965681;28;20053;-50
2022/03/08 05:04:26;;;;;;;7.55;3.95;;;;;;;-1.47;62.48;102726.06;4967073;28;20027;-50
2022/03/08 05:06:51;;;;;;;6.60;3.22;;;;;;;-1.48;62.48;102732.28;4966722;28;20026;-46
2022/03/08 05:09:17;;;;;;;6.90;3.63;;;;;;;-1.48;62.39;102731.44;4969537;28;20082;-47
2022/03/08 05:11:44;;;;;;;6.72;3.85;;;;;;;-1.50;62.62;102730.72;4964532;28;20097;-47
2022/03/08 05:14:09;;;;;;;7.07;4.07;;;;;;;-1.52;62.40;102723.81;4965836;28;20050;-51
2022/03/08 05:16:35;;;;;;;6.72;4.13;;;;;;;-1.54;62.06;102723.09;4967794;28;20942;-48
2022/03/08 05:19:01;;;;;;;7.75;4.20;;;;;;;-1.65;62.88;102728.34;4963425;28;20061;-50
2022/03/08 05:21:26;;;;;;;11.60;5.88;;;;;;;-1.68;63.32;102719.88;4965435;28;20026;-49
2022/03/08 05:23:52;;;;;;;11.10;6.15;;;;;;;-1.80;63.36;102718.19;4965391;28;20105;-47
2022/03/08 05:26:17;;;;;;;16.92;9.18;;;;;;;-1.92;64.35;102714.72;4967068;28;20061;-46
2022/03/08 05:28:43;;;;;;;17.10;8.75;;;;;;;-2.05;64.39;102717.44;4967746;28;20404;-47
2022/03/08 05:31:10;;;;;;;18.02;8.05;;;;;;;-2.13;64.70;102715.44;4967977;28;20026;-50
2022/03/08 05:33:35;;;;;;;17.77;8.43;;;;;;;-2.21;65.51;102715.16;4967329;28;20034;-49
2022/03/08 05:36:01;;;;;;;17.10;7.65;;;;;;;-2.21;65.18;102714.31;4961012;28;20515;-46
2022/03/08 05:38:26;;;;;;;16.50;7.32;;;;;;;-2.13;65.23;102715.44;4967145;28;20023;-47
2022/03/08 05:40:52;;;;;;;12.27;6.82;;;;;;;-2.04;64.61;102713.88;4965435;28;20114;-46
2022/03/08 05:43:18;;;;;;;12.57;6.97;;;;;;;-1.98;64.51;102708.13;4966439;28;20034;-47
2022/03/08 05:45:43;;;;;;;10.90;6.00;;;;;;;-1.92;63.82;102707.69;4961296;28;20026;-49
2022/03/08 05:48:10;;;;;;;12.93;7.00;;;;;;;-1.90;63.72;102705.78;4964497;28;20025;-51
2022/03/08 05:50:36;;;;;;;11.63;7.03;;;;;;;-1.86;63.88;102707.19;4966002;28;20026;-47
2022/03/08 05:53:02;;;;;;;13.38;6.72;;;;;;;-1.84;63.38;102714.97;4963415;28;20388;-49
2022/03/08 05:55:27;;;;;;;10.52;5.80;;;;;;;-1.82;63.39;102713.03;4962855;28;20031;-48
2022/03/08 05:57:53;;;;;;;10.38;5.68;;;;;;;-1.79;63.16;102710.22;4962282;28;20507;-46
2022/03/08 06:00:18;;;;;;;10.57;5.57;;;;;;;-1.77;63.58;102705.66;4962228;28;20040;-46
2022/03/08 06:02:44;;;;;;;8.52;5.47;;;;;;;-1.72;63.17;102713.19;4964653;28;20027;-47
2022/03/08 06:05:10;;;;;;;11.90;5.60;;;;;;;-1.71;63.68;102705.19;4964878;28;20033;-48
2022/03/08 06:07:35;;;;;;;11.15;5.32;;;;;;;-1.67;63.62;102711.84;4967994;28;20026;-48
2022/03/08 06:10:01;;;;;;;14.13;5.18;;;;;;;-1.63;62.97;102715.06;4962462;28;20078;-47
2022/03/08 06:12:26;;;;;;;9.07;4.88;;;;;;;-1.59;63.26;102708.66;4963162;28;20398;-46
2022/03/08 06:14:52;;;;;;;7.55;5.10;;;;;;;-1.55;63.41;102713.53;4959583;28;20033;-49
2022/03/08 06:17:17;;;;;;;7.35;4.68;;;;;;;-1.49;62.74;102719.25;4968872;28;20065;-49
2022/03/08 06:19:43;;;;;;;9.15;4.57;;;;;;;-1.45;62.91;102720.69;4969932;28;20500;-47
2022/03/08 06:22:08;;;;;;;6.97;5.10;;;;;;;-1.37;62.58;102720.94;4968864;28;20038;-48
2022/03/08 06:24:34;;;;;;;8.10;4.75;;;;;;;-1.32;62.89;102718.75;4969190;28;20033;-48
2022/03/08 06:27:00;;;;;;;7.85;5.18;;;;;;;-1.26;62.80;102715.63;4969342;28;20055;-47
2022/03/08 06:29:25;;;;;;;9.73;5.22;;;;;;;-1.19;62.61;102716.81;4964168;28;20380;-46
2022/03/08 06:31:51;;;;;;;10.38;5.32;;;;;;;-1.12;62.95;102712.72;4967021;28;20077;-46
2022/03/08 06:34:16;;;;;;;12.82;5.93;;;;;;;-1.06;62.36;102717.53;4962061;28;20043;-48
2022/03/08 06:36:42;;;;;;;14.45;6.13;;;;;;;-0.98;62.77;102727.41;4970045;28;20165;-48
2022/03/08 06:39:08;;;;;;;12.35;6.00;;;;;;;-0.93;62.66;102726.06;4965306;28;20057;-47
2022/03/08 06:41:33;;;;;;;13.63;6.38;;;;;;;-0.86;62.62;102730.84;4969114;28;20751;-48
2022/03/08 06:44:00;;;;;;;14.88;5.97;;;;;;;-0.79;62.56;102724.97;4966973;28;20035;-50
2022/03/08 06:46:25;;;;;;;10.85;6.25;;;;;;;-0.70;63.12;102733.91;4966416;28;20019;-47
2022/03/08 06:48:51;;;;;;;12.07;6.25;;;;;;;-0.63;63.10;102727.19;4968785;28;20080;-50
2022/03/08 06:51:17;;;;;;;10.52;5.95;;;;;;;-0.55;63.29;102722.09;4967872;28;20527;-47
2022/03/08 06:53:42;;;;;;;12.88;6.78;;;;;;;-0.47;63.08;102727.59;4966008;28;20061;-48
2022/03/08 06:56:08;;;;;;;14.65;7.35;;;;;;;-0.39;62.99;102719.88;4969004;28;20066;-48
2022/03/08 06:58:33;;;;;;;15.55;7.05;;;;;;;-0.31;63.64;102709.53;4964142;28;20039;-46
2022/03/08 07:00:59;;;;;;;15.63;7.15;;;;;;;-0.22;63.69;102728.16;4967502;28;20034;-47
2022/03/08 07:03:24;;;;;;;13.95;6.32;;;;;;;-0.14;63.30;102723.94;4964954;28;20023;-48
2022/03/08 07:05:50;;;;;;;15.18;7.05;;;;;;;-0.04;63.47;102719.53;4964658;28;20384;-47
2022/03/08 07:08:16;;;;;;;10.40;6.10;;;;;;;0.06;64.21;102724.03;4961041;28;20026;-49
2022/03/08 07:10:41;;;;;;;12.23;6.25;;;;;;;0.15;64.29;102723.22;4969204;28;20027;-47
2022/03/08 07:13:07;;;;;;;15.77;7.20;;;;;;;0.24;64.04;102720.66;4966617;28;20089;-48
2022/03/08 07:15:33;;;;;;;10.85;6.15;;;;;;;0.35;64.31;102717.06;4964148;28;20031;-46
2022/03/08 07:17:58;;;;;;;12.43;6.40;;;;;;;0.45;64.39;102717.13;4966182;28;20058;-50
2022/03/08 07:20:24;;;;;;;10.95;6.50;;;;;;;0.55;64.86;102718.00;4962653;28;20699;-50
2022/03/08 07:22:49;;;;;;;10.30;5.82;;;;;;;0.64;64.54;102717.19;4964748;28;20033;-49
2022/03/08 07:25:16;;;;;;;11.80;6.38;;;;;;;0.76;64.75;102720.56;4968833;28;20038;-50
2022/03/08 07:27:42;;;;;;;13.75;6.47;;;;;;;0.88;64.78;102715.00;4966198;28;20023;-49
2022/03/08 07:30:09;;;;;;;14.32;6.28;;;;;;;0.98;65.38;102719.47;4969416;28;20159;-48
2022/03/08 07:32:36;;;;;;;12.20;5.63;;;;;;;1.09;65.15;102716.72;4968523;28;20034;-47
2022/03/08 07:35:02;;;;;;;14.75;7.13;;;;;;;1.19;65.30;102717.53;4963464;28;20097;-47
2022/03/08 07:37:28;;;;;;;19.45;8.38;;;;;;;1.31;65.23;102726.19;4968528;28;20026;-46
2022/03/08 07:39:55;;;;;;;16.25;7.53;;;;;;;1.42;65.39;102718.09;4959510;28;20046;-48
2022/03/08 07:42:20;;;;;;;16.20;8.25;;;;;;;1.53;65.18;102723.25;4968174;28;20022;-48
2022/03/08 07:44:46;;;;;;;15.88;7.82;;;;;;;1.63;65.13;102726.72;4962697;28;20626;-47
2022/03/08 07:47:12;;;;;;;15.38;7.40;;;;;;;1.74;65.27;102733.66;4968374;28;20031;-50
2022/03/08 07:49:37;;;;;;;15.05;8.15;;;;;;;1.87;65.36;102730.72;4965082;28;20527;-50
2022/03/08 07:52:04;;;;;;;17.00;8.23;;;;;;;1.97;64.79;102734.97;4967697;28;20590;-51
2022/03/08 07:54:29;;;;;;;21.17;8.85;;;;;;;2.10;64.94;102737.31;4960563;28;20039;-48
2022/03/08 07:56:55;;;;;;;14.75;8.02;;;;;;;2.23;64.90;102731.72;4966164;28;20022;-47
2022/03/08 07:59:20;;;;;;;15.65;7.57;;;;;;;2.36;64.75;102737.53;4965233;28;20511;-51
2022/03/08 08:01:46;;;;;;;18.83;8.48;;;;;;;2.44;65.36;102742.91;4965571;28;20034;-49
2022/03/08 08:04:11;;;;;;;17.00;7.45;;;;;;;2.58;64.80;102744.25;4968975;28;20387;-48
2022/03/08 08:06:37;;;;;;;15.02;7.47;;;;;;;2.73;64.35;102742.78;4965265;28;20030;-48
2022/03/08 08:09:04;;;;;;;14.50;7.10;;;;;;;2.87;64.11;102744.94;4966888;28;20599;-52
2022/03/08 08:11:29;;;;;;;12.65;7.10;;;;;;;3.03;64.09;102745.09;4965029;28;21854;-49
2022/03/08 08:13:55;;;;;;;17.70;6.85;;;;;;;3.18;63.80;102742.75;4962862;28;20117;-51
2022/03/08 08:16:23;;;;;;;15.60;7.55;;;;;;;3.29;63.71;102739.91;4962926;28;20072;-49
2022/03/08 08:18:49;;;;;;;13.70;8.13;;;;;;;3.43;63.36;102743.00;4969569;28;20045;-48
2022/03/08 08:21:14;;;;;;;11.52;6.38;;;;;;;3.58;63.18;102742.28;4971445;28;20034;-52
2022/03/08 08:23:40;;;;;;;15.73;6.38;;;;;;;3.70;63.35;102742.91;4970048;28;20119;-47
2022/03/08 08:26:05;;;;;;;10.40;5.72;;;;;;;3.80;62.92;102738.34;4965353;28;20504;-50
2022/03/08 08:28:31;;;;;;;12.73;6.10;;;;;;;3.92;62.73;102746.84;4966086;28;20041;-50
2022/03/08 08:30:56;;;;;;;10.13;5.95;;;;;;;4.02;62.38;102746.78;4971371;28;20031;-53
2022/03/08 08:33:22;;;;;;;9.88;4.68;;;;;;;4.10;62.39;102757.41;4972684;28;20026;-51
2022/03/08 08:35:48;;;;;;;9.90;4.57;;;;;;;4.18;62.24;102752.19;4972522;28;20990;-48
2022/03/08 08:38:14;;;;;;;7.43;4.65;;;;;;;4.30;62.21;102756.22;4968264;28;20035;-50
2022/03/08 08:40:39;;;;;;;7.68;4.35;;;;;;;4.42;61.92;102760.28;4969458;28;20026;-51
2022/03/08 08:43:05;;;;;;;5.95;3.88;;;;;;;4.58;61.81;102764.81;4971648;28;20026;-47
2022/03/08 08:45:32;;;;;;;6.22;4.15;;;;;;;4.75;61.86;102763.91;4967211;28;20041;-51
2022/03/08 08:47:58;;;;;;;8.55;4.28;;;;;;;4.87;61.52;102755.66;4967762;28;20050;-50
2022/03/08 08:50:23;;;;;;;4.82;3.92;;;;;;;5.00;61.35;102754.19;4968820;28;20550;-49
2022/03/08 08:52:49;;;;;;;7.93;3.58;;;;;;;5.14;60.83;102760.69;4969935;28;20109;-49
2022/03/08 08:55:14;;;;;;;5.03;3.70;;;;;;;5.27;60.88;102760.22;4965058;28;20110;-52
2022/03/08 08:57:40;;;;;;;6.70;3.47;;;;;;;5.36;60.62;102756.56;4967923;28;20035;-51
2022/03/08 09:00:08;;;;;;;6.13;3.03;;;;;;;5.49;60.78;102762.25;4971205;28;20062;-47
2022/03/08 09:02:34;;;;;;;4.78;3.35;;;;;;;5.50;60.56;102755.91;4971662;28;20067;-50
2022/03/08 09:05:00;;;;;;;4.88;3.88;;;;;;;5.54;60.41;102757.25;4970728;28;20050;-48
2022/03/08 09:07:25;;;;;;;5.47;3.13;;;;;;;5.65;60.31;102754.28;4971202;28;20034;-51
2022/03/08 09:09:51;;;;;;;5.65;3.55;;;;;;;5.80;60.24;102754.44;4965971;28;20440;-48
2022/03/08 09:15:38;;;;;;;4.10;3.22;;;;;;;6.09;59.72;102735.28;4970546;28;20196;-48
2022/03/08 09:18:05;;;;;;;4.53;2.90;;;;;;;6.22;60.02;102732.94;4968682;28;20763;-46
2022/03/08 09:20:31;;;;;;;4.88;3.20;;;;;;;6.39;59.59;102744.34;4971387;28;20033;-50
2022/03/08 09:22:57;;;;;;;4.95;3.25;;;;;;;6.54;59.37;102739.97;4965933;28;20027;-49
2022/03/08 09:25:23;;;;;;;5.53;2.60;;;;;;;6.67;58.92;102739.44;4967989;28;20049;-47
2022/03/08 09:27:48;;;;;;;3.78;2.67;;;;;;;6.83;58.80;102735.88;4970684;28;20114;-50
2022/03/08 09:30:16;;;;;;;5.85;2.88;;;;;;;6.92;58.78;102734.81;4969520;28;20428;-48
2022/03/08 09:32:41;;;;;;;5.07;2.58;;;;;;;6.98;57.97;102732.25;4971438;28;20031;-47
2022/03/08 09:35:07;;;;;;;2.85;1.85;;;;;;;7.03;57.85;102723.75;4971621;28;20655;-48
2022/03/08 09:37:33;;;;;;;5.00;1.98;;;;;;;7.11;57.29;102731.69;4971349;28;20062;-49
2022/03/08 09:39:59;;;;;;;4.18;1.90;;;;;;;7.17;56.45;102730.13;4968379;28;20162;-47
2022/03/08 09:42:25;;;;;;;3.72;1.60;;;;;;;7.26;56.38;102729.09;4969708;28;20037;-47
2022/03/08 09:44:51;;;;;;;3.38;1.67;;;;;;;7.33;55.85;102719.34;4967383;28;20042;-47
2022/03/08 09:47:17;;;;;;;2.15;1.75;;;;;;;7.44;55.42;102713.63;4970189;28;21787;-49
2022/03/08 09:49:42;;;;;;;3.65;1.85;;;;;;;7.56;54.71;102709.53;4972212;28;20029;-49
2022/03/08 09:52:08;;;;;;;3.33;1.27;;;;;;;7.71;54.67;102716.69;4969185;28;20038;-47
2022/03/08 09:54:34;;;;;;;2.83;1.67;;;;;;;7.85;54.09;102711.41;4965470;28;20750;-46
2022/03/08 09:57:07;;;;;;;2.97;1.50;;;;;;;7.96;52.89;102720.81;4968830;28;20035;-49
2022/03/08 09:59:33;;;;;;;2.53;1.40;;;;;;;8.11;53.51;102712.81;4969744;28;20027;-47
2022/03/08 10:01:58;;;;;;;2.67;1.38;;;;;;;8.21;52.85;102705.34;4971026;28;20038;-47
2022/03/08 10:04:24;;;;;;;3.78;1.30;;;;;;;8.25;52.07;102703.97;4971554;28;20409;-47
2022/03/08 10:06:50;;;;;;;2.80;1.10;;;;;;;8.37;52.11;102707.84;4970836;28;20062;-50
2022/03/08 10:09:21;;;;;;;1.58;1.38;;;;;;;8.46;51.36;102712.09;4968587;28;20040;-47
2022/03/08 10:11:55;;;;;;;2.65;1.60;;;;;;;8.49;50.29;102710.91;4983128;28;20022;-47
2022/03/08 10:14:35;;;;;;;2.67;1.00;;;;;;;8.59;50.15;102710.59;4968735;28;20035;-48
2022/03/08 10:17:00;;;;;;;2.88;1.23;;;;;;;8.78;50.31;102705.47;4967463;28;20035;-47
2022/03/08 10:19:26;;;;;;;1.80;1.45;;;;;;;8.94;49.79;102706.25;4969683;28;20408;-48
2022/03/08 10:22:03;;;;;;;2.92;1.70;;;;;;;8.98;48.58;102707.56;4970455;28;20390;-48
2022/03/08 10:24:29;;;;;;;3.25;1.60;;;;;;;9.13;49.28;102708.31;4968045;28;20030;-47
2022/03/08 10:26:58;;;;;;;2.53;1.38;;;;;;;9.21;49.39;102705.53;4969264;28;20025;-47
2022/03/08 10:29:36;;;;;;;2.83;1.60;;;;;;;9.34;48.86;102703.00;4970528;28;20116;-49
2022/03/08 10:32:11;;;;;;;2.03;1.63;;;;;;;9.50;48.65;102711.75;4968676;28;20085;-48
2022/03/08 10:34:39;;;;;;;;;;;;;;;9.57;48.79;102709.97;4971113;28;20042;-47
2022/03/08 10:37:15;;;;;;;2.10;1.50;;;;;;;9.78;48.41;102711.78;4969618;28;19914;-48
2022/03/08 10:39:57;;;;;;;2.75;1.70;;;;;;;9.80;47.94;102715.91;4965648;28;20034;-47
2022/03/08 10:42:29;;;;;;;2.42;1.63;;;;;;;9.91;48.15;102707.34;4970568;28;20030;-47
2022/03/08 10:45:00;;;;;;;1.55;1.38;;;;;;;9.99;46.95;102699.16;4966202;28;20022;-48
2022/03/08 10:47:26;;;;;;;3.92;1.27;;;;;;;10.12;47.20;102694.91;4969864;28;20622;-47
2022/03/08 10:49:57;;;;;;;3.28;1.30;;;;;;;10.17;46.27;102687.91;4969733;28;20030;-50
2022/03/08 10:52:31;;;;;;;4.55;1.70;;;;;;;10.17;45.90;102692.44;4970252;28;20031;-47
2022/03/08 10:55:17;;;;;;;2.47;1.10;;;;;;;10.22;44.85;102677.47;4965420;28;20022;-46
2022/03/08 10:57:49;;;;;;;1.58;1.40;;;;;;;10.34;45.35;102671.53;4964429;28;20030;-47
2022/03/08 11:00:17;;;;;;;3.30;1.20;;;;;;;10.42;44.34;102671.38;4966715;28;20065;-46
2022/03/08 11:02:49;;;;;;;2.13;1.23;;;;;;;10.44;43.77;102667.47;4969368;28;20029;-47
2022/03/08 11:05:16;;;;;;;2.60;1.23;;;;;;;10.63;44.51;102667.75;4968098;28;20111;-47
2022/03/08 11:07:42;;;;;;;1.08;0.80;;;;;;;10.78;43.97;102666.56;4968432;28;20026;-48
2022/03/08 11:10:09;;;;;;;2.38;1.08;;;;;;;10.85;43.77;102667.38;4965703;28;20034;-49
2022/03/08 11:12:36;;;;;;;4.65;1.08;;;;;;;10.93;43.17;102661.00;4968292;28;20035;-47
2022/03/08 11:15:02;;;;;;;1.83;1.27;;;;;;;10.97;42.89;102656.91;4968391;28;20062;-48
2022/03/08 11:17:28;;;;;;;2.47;1.20;;;;;;;11.12;43.03;102660.19;4967037;28;20038;-47
2022/03/08 11:19:56;;;;;;;1.70;1.27;;;;;;;11.12;41.82;102646.78;4968955;28;20031;-47
2022/03/08 11:22:23;;;;;;;1.23;1.13;;;;;;;11.16;42.09;102642.69;4967251;28;20030;-47
2022/03/08 11:24:49;;;;;;;2.85;1.00;;;;;;;11.24;41.89;102644.31;4966020;28;20030;-50
2022/03/08 11:27:16;;;;;;;2.60;1.10;;;;;;;11.38;41.28;102653.22;4965801;28;20030;-48